CPX713 Details

Departure: Incheon International Airport (RKSI)
Arrival: Tokyo-Narita International Airport (RJAA)
Route: SEL1S SEL G597 KAE Y437 TENAS L512 GTC Y303 KAMOH Y301 SHELY Y30 MELON NORMA


Current Weather Information
RKSI 232230Z 14006KT 5000 HZ NSC 19/13 Q1011 NOSIG
RJAA 232230Z 25004KT 210V310 9999 FEW030 21/16 Q1010 NOSIG